CAR weather

San Carlos Airport
San Carlos, Mendoza Province, Argentina

Public forecast

Using degrees Celsius for public forecast. Weather courtesy of forecast.io.

METAR (pilot weather report)

Closest report is El Plumerillo Airport, 58.2 nm (107.7 km) NNE. Retrieved 2019/09/23 12:00 UTC (42 minutes ago):

SAME 231200Z 18004KT CAVOK 15/M04 Q1018

TAF (pilot weather forecast)

Closest forecast is El Plumerillo Airport, 58.2 nm (107.7 km) NNE. Retrieved 2019/09/23 12:00 UTC (42 minutes ago):

TAF SAME 231100Z 2312/2412 18005KT CAVOK TX25/2320Z TN10/2411Z BECMG 2314/2316 05005KT BECMG 2401/2403 20005KT